Time;durP1;ratioP1;P1;durP2;ratioP2;P2;SDS_P1;SDS_P2;PMS_P1;PMS_P2;Temp;Humidity;BMP_temperature;BMP_pressure;BME280_temperature;BME280_humidity;BME280_pressure;Samples;Min_cycle;Max_cycle;Signal;HPM_P1;HPM_P2
2021/03/12 00:00:11;;;;;;;44.25;25.37;;;;;;;4.79;70.04;98768.69;2201702;80;28896;-64
2021/03/12 00:03:21;;;;;;;42.23;25.40;;;;;;;4.66;70.26;98768.44;2183817;80;27765;-65
2021/03/12 00:06:23;;;;;;;36.20;22.45;;;;;;;4.54;70.25;98764.59;2183655;80;33092;-65
2021/03/12 00:09:25;;;;;;;36.08;20.65;;;;;;;4.45;70.47;98773.86;2201470;80;29172;-65
2021/03/12 00:12:27;;;;;;;34.92;19.95;;;;;;;4.38;70.09;98788.38;2201564;80;27624;-65
2021/03/12 00:15:30;;;;;;;35.48;22.42;;;;;;;4.33;70.13;98789.05;2183315;81;29727;-65
2021/03/12 00:18:39;;;;;;;35.50;21.27;;;;;;;4.23;70.32;98787.31;2190833;80;31203;-65
2021/03/12 00:21:41;;;;;;;35.30;21.65;;;;;;;4.13;70.49;98791.34;2203905;80;33981;-65
2021/03/12 00:24:43;;;;;;;45.30;26.30;;;;;;;4.09;70.63;98786.64;2127065;82;30139;-65
2021/03/12 00:27:45;;;;;;;41.28;26.62;;;;;;;4.06;71.15;98781.02;2176383;80;27571;-65
2021/03/12 00:30:47;;;;;;;42.15;27.55;;;;;;;4.05;71.65;98776.66;2174137;81;29778;-65
2021/03/12 00:33:50;;;;;;;44.38;27.20;;;;;;;4.06;72.04;98788.10;2177104;80;32231;-65
2021/03/12 00:36:52;;;;;;;55.95;33.45;;;;;;;4.09;72.23;98810.48;2168965;81;33068;-65
2021/03/12 00:39:54;;;;;;;51.40;30.37;;;;;;;4.13;72.35;98808.09;2166751;82;29162;-65
2021/03/12 00:42:56;;;;;;;39.23;24.77;;;;;;;4.19;72.57;98805.16;2158221;82;28250;-65
2021/03/12 00:46:02;;;;;;;36.70;23.62;;;;;;;4.26;72.60;98814.52;2132537;82;29008;-64
2021/03/12 00:49:04;;;;;;;41.77;24.37;;;;;;;4.35;72.69;98807.08;2152068;82;31136;-65
2021/03/12 00:52:06;;;;;;;37.40;22.85;;;;;;;4.47;72.92;98802.98;2212366;80;33119;-65
2021/03/12 00:55:10;;;;;;;44.80;28.02;;;;;;;4.57;72.99;98816.16;2143321;82;29222;-65
2021/03/12 00:58:12;;;;;;;48.30;29.23;;;;;;;4.66;73.19;98818.35;2183454;80;27685;-65
2021/03/12 01:01:14;;;;;;;43.78;27.77;;;;;;;4.78;73.34;98814.72;2174152;81;28825;-65
2021/03/12 01:04:16;;;;;;;47.90;28.12;;;;;;;4.90;73.47;98803.48;2203047;80;31116;-65
2021/03/12 01:07:19;;;;;;;35.05;22.98;;;;;;;5.02;73.49;98803.34;2150358;81;33994;-65
2021/03/12 01:10:21;;;;;;;36.80;22.73;;;;;;;5.15;73.48;98808.40;2212745;80;29214;-65
2021/03/12 01:13:23;;;;;;;35.50;24.12;;;;;;;5.27;73.62;98798.95;2179210;81;27679;-65
2021/03/12 01:16:25;;;;;;;31.55;21.68;;;;;;;5.40;73.43;98799.14;2172210;81;28813;-65
2021/03/12 01:19:27;;;;;;;28.12;18.05;;;;;;;5.51;73.34;98806.54;2179082;81;31598;-65
2021/03/12 01:22:30;;;;;;;30.17;19.30;;;;;;;5.65;73.13;98796.97;2179426;80;33126;-65
2021/03/12 01:25:40;;;;;;;28.70;18.45;;;;;;;5.80;73.03;98797.95;2179104;80;29181;-65
2021/03/12 01:28:42;;;;;;;34.63;22.07;;;;;;;5.92;72.94;98790.18;2180509;80;27663;-65
2021/03/12 01:31:44;;;;;;;34.60;20.92;;;;;;;6.01;72.50;98793.29;2192864;80;29736;-65
2021/03/12 01:34:46;;;;;;;36.00;22.75;;;;;;;6.05;72.22;98792.19;2216443;80;31586;-65
2021/03/12 01:37:48;;;;;;;34.35;21.52;;;;;;;6.12;72.11;98784.27;2216266;80;34112;-65
2021/03/12 01:40:51;;;;;;;32.63;21.87;;;;;;;6.17;71.98;98782.67;2216896;80;30435;-65
2021/03/12 01:43:53;;;;;;;36.53;23.55;;;;;;;6.19;71.80;98780.30;2199374;80;27746;-65
2021/03/12 01:46:55;;;;;;;30.23;20.50;;;;;;;6.22;71.69;98785.45;2179082;81;28826;-64
2021/03/12 01:49:57;;;;;;;43.40;24.00;;;;;;;6.25;71.60;98794.20;2210228;80;31642;-64
2021/03/12 01:52:59;;;;;;;38.95;23.60;;;;;;;6.23;71.46;98791.62;2210629;80;33190;-65
2021/03/12 01:56:03;;;;;;;34.98;21.23;;;;;;;6.21;71.45;98790.39;2183288;80;30301;-65
2021/03/12 01:59:05;;;;;;;33.48;21.45;;;;;;;6.23;71.45;98788.50;2217364;80;28113;-65
2021/03/12 02:02:07;;;;;;;43.63;24.80;;;;;;;6.21;71.37;98786.39;2217161;80;29357;-64
2021/03/12 02:05:10;;;;;;;44.27;26.23;;;;;;;6.21;71.36;98781.53;2203018;80;31285;-65
2021/03/12 02:08:12;;;;;;;35.52;21.30;;;;;;;6.20;71.35;98780.69;2177519;80;33129;-65
2021/03/12 02:11:16;;;;;;;30.08;18.57;;;;;;;6.20;71.38;98780.69;2175709;81;31501;-65
2021/03/12 02:14:41;;;;;;;29.85;18.92;;;;;;;6.23;71.34;98774.33;2181678;80;27704;-64
2021/03/12 02:18:00;;;;;;;30.10;18.90;;;;;;;6.28;71.26;98768.29;2185702;80;32841;-64
2021/03/12 02:21:40;;;;;;;27.90;18.73;;;;;;;6.38;71.21;98763.30;2341780;76;28586;-64
2021/03/12 02:24:52;;;;;;;29.55;19.57;;;;;;;6.37;71.25;98769.56;2280556;77;27652;-65
2021/03/12 02:27:55;;;;;;;25.45;17.90;;;;;;;6.42;71.27;98767.52;2278391;77;28880;-64
2021/03/12 02:30:58;;;;;;;30.48;19.95;;;;;;;6.47;71.26;98768.08;2278660;77;31120;-64
2021/03/12 02:34:06;;;;;;;26.90;19.00;;;;;;;6.53;71.26;98771.73;2261866;78;34025;-64
2021/03/12 02:37:09;;;;;;;27.65;19.32;;;;;;;6.59;71.20;98769.67;2259204;78;28541;-65
2021/03/12 02:40:12;;;;;;;25.75;18.42;;;;;;;6.62;71.13;98771.67;2263250;77;27590;-64
2021/03/12 02:43:15;;;;;;;24.40;18.02;;;;;;;6.67;71.12;98773.60;2286696;77;28857;-64
2021/03/12 02:46:20;;;;;;;28.20;19.02;;;;;;;6.71;71.09;98794.69;2299803;77;31303;-64
2021/03/12 02:49:25;;;;;;;35.60;22.77;;;;;;;6.71;71.13;98814.64;2300599;77;33123;-63
2021/03/12 02:52:27;;;;;;;36.55;23.77;;;;;;;6.69;70.81;98839.57;2287343;77;28846;-65
2021/03/12 02:55:30;;;;;;;41.58;26.68;;;;;;;6.68;70.69;98842.30;2303722;77;27580;-64
2021/03/12 02:58:33;;;;;;;41.90;25.92;;;;;;;6.67;70.47;98852.56;2286168;77;28884;-65
2021/03/12 03:01:35;;;;;;;42.45;26.45;;;;;;;6.65;70.44;98851.33;2282596;77;31125;-64
2021/03/12 03:04:41;;;;;;;40.88;25.77;;;;;;;6.63;70.42;98860.33;2283874;77;33098;-65
2021/03/12 03:07:47;;;;;;;24.23;17.98;;;;;;;6.62;70.45;98871.95;2261893;78;28848;-64
2021/03/12 03:10:49;;;;;;;25.72;16.87;;;;;;;6.57;70.40;98879.31;2269904;77;28249;-64
2021/03/12 03:13:52;;;;;;;20.17;13.78;;;;;;;6.56;70.52;98897.06;2303413;77;29774;-65
2021/03/12 03:16:54;;;;;;;22.02;14.18;;;;;;;6.56;70.55;98892.23;2288908;77;31186;-65
2021/03/12 03:19:56;;;;;;;21.70;13.45;;;;;;;6.56;70.58;98891.75;2284661;77;33184;-64
2021/03/12 03:22:59;;;;;;;20.88;13.15;;;;;;;6.56;70.51;98894.41;2264906;77;29732;-63
2021/03/12 03:26:01;;;;;;;20.40;11.57;;;;;;;6.56;70.59;98886.42;2261832;78;27659;-64
2021/03/12 03:29:05;;;;;;;21.97;12.25;;;;;;;6.56;70.57;98898.40;2263050;77;29757;-64
2021/03/12 03:32:07;;;;;;;17.73;11.65;;;;;;;6.57;70.63;98893.95;2286996;77;32087;-65
2021/03/12 03:35:12;;;;;;;18.98;11.10;;;;;;;6.58;70.66;98896.52;2301753;77;33698;-64
2021/03/12 03:38:14;;;;;;;15.20;9.10;;;;;;;6.60;70.63;98896.45;2264397;77;28919;-64
2021/03/12 03:41:18;;;;;;;13.95;9.18;;;;;;;6.62;70.58;98898.55;2262011;77;27753;-64
2021/03/12 03:44:26;;;;;;;12.90;8.05;;;;;;;6.65;70.59;98904.55;2261042;78;28831;-64
2021/03/12 03:47:29;;;;;;;12.05;7.87;;;;;;;6.69;70.47;98911.42;2261071;78;31177;-65
2021/03/12 03:50:32;;;;;;;13.13;7.80;;;;;;;6.71;70.40;98907.79;2263858;77;33169;-65
2021/03/12 03:53:35;;;;;;;11.78;7.72;;;;;;;6.71;70.39;98916.66;2270491;77;28853;-66
2021/03/12 03:56:37;;;;;;;11.38;6.83;;;;;;;6.72;70.32;98925.02;2280709;77;27750;-61
2021/03/12 03:59:40;;;;;;;10.08;6.15;;;;;;;6.73;70.28;98924.53;2260936;78;28809;-69
2021/03/12 04:02:45;;;;;;;9.15;5.55;;;;;;;6.73;70.23;98925.87;2232237;78;31200;-63
2021/03/12 04:05:47;;;;;;;;;;;;;;;6.73;70.24;98929.41;2263484;77;34484;-63
2021/03/12 04:08:50;;;;;;;5.60;3.75;;;;;;;6.74;70.14;98928.91;2263917;77;28890;-63
2021/03/12 04:11:52;;;;;;;5.58;3.20;;;;;;;6.71;70.10;98936.61;2260939;77;27706;-68
2021/03/12 04:14:56;;;;;;;9.05;3.10;;;;;;;6.70;70.01;98932.23;2263439;77;28831;-63
2021/03/12 04:17:58;;;;;;;3.15;2.15;;;;;;;6.69;69.97;98932.72;2260923;77;32024;-66
2021/03/12 04:21:03;;;;;;;4.37;2.90;;;;;;;6.66;69.82;98930.67;2263744;78;33951;-65
2021/03/12 04:24:07;;;;;;;7.62;2.95;;;;;;;6.64;69.86;98932.56;2273023;77;28928;-65
2021/03/12 04:27:09;;;;;;;5.80;1.42;;;;;;;6.64;69.71;98928.57;2303355;77;27807;-65
2021/03/12 04:30:14;;;;;;;3.58;1.40;;;;;;;6.65;69.62;98939.15;2264593;78;28826;-66
2021/03/12 04:33:16;;;;;;;3.05;1.37;;;;;;;6.66;69.67;98938.20;2264566;78;35121;-64
2021/03/12 04:36:19;;;;;;;5.35;1.67;;;;;;;6.68;69.68;98952.74;2265089;77;34492;-64
2021/03/12 04:39:22;;;;;;;6.00;2.08;;;;;;;6.70;69.64;98954.85;2264751;78;28890;-65
2021/03/12 04:42:25;;;;;;;6.83;3.27;;;;;;;6.71;69.66;98961.02;2295770;77;27704;-64
2021/03/12 04:45:28;;;;;;;8.90;4.12;;;;;;;6.71;69.72;98961.89;2268206;77;28815;-63
2021/03/12 04:48:31;;;;;;;5.22;2.83;;;;;;;6.69;69.65;98971.76;2306393;77;31848;-66
2021/03/12 04:51:33;;;;;;;5.60;2.47;;;;;;;6.66;69.70;98981.23;2305996;77;33130;-66
2021/03/12 04:54:35;;;;;;;6.60;2.60;;;;;;;6.62;69.90;98988.54;2281188;77;28847;-63
2021/03/12 04:57:38;;;;;;;8.35;2.65;;;;;;;6.58;69.94;98981.66;2267703;77;27687;-65
2021/03/12 05:00:41;;;;;;;5.58;2.35;;;;;;;6.52;70.14;98992.17;2290799;75;29735;-63
2021/03/12 05:03:43;;;;;;;4.42;2.67;;;;;;;6.44;70.46;98990.41;2208882;80;32055;-65
2021/03/12 05:06:46;;;;;;;4.62;2.72;;;;;;;6.42;70.82;98988.75;2211444;79;34147;-65
2021/03/12 05:09:49;;;;;;;6.35;4.83;;;;;;;6.42;70.84;98991.41;2201980;79;29356;-65
2021/03/12 05:12:51;;;;;;;8.68;4.80;;;;;;;6.43;70.94;98994.46;2228896;79;27720;-63
2021/03/12 05:15:53;;;;;;;7.10;2.55;;;;;;;6.45;71.03;99004.10;2226688;79;28823;-64
2021/03/12 05:18:56;;;;;;;4.87;2.52;;;;;;;6.47;71.08;99004.85;2206037;79;31225;-64
2021/03/12 05:21:59;;;;;;;6.42;2.58;;;;;;;6.41;70.96;99017.63;2201658;80;35513;-65
2021/03/12 05:25:01;;;;;;;10.23;2.80;;;;;;;6.36;71.15;99014.77;2203602;80;30237;-64
2021/03/12 05:28:04;;;;;;;3.37;2.00;;;;;;;6.33;71.18;99010.05;2203626;80;27787;-64
2021/03/12 05:31:06;;;;;;;3.45;2.02;;;;;;;6.30;71.26;98999.57;2203665;80;30002;-64
2021/03/12 05:34:09;;;;;;;4.90;2.30;;;;;;;6.27;71.30;98991.78;2203511;80;31147;-65
2021/03/12 05:37:12;;;;;;;7.50;2.52;;;;;;;6.25;71.50;99002.97;2232731;79;33124;-65
2021/03/12 05:40:15;;;;;;;6.35;1.90;;;;;;;6.26;71.55;99009.52;2243155;79;28845;-65
2021/03/12 05:43:19;;;;;;;4.50;2.50;;;;;;;6.26;71.46;98994.89;2243292;79;27838;-64
2021/03/12 05:46:21;;;;;;;7.25;2.52;;;;;;;6.23;71.52;98991.94;2242244;79;28816;-65
2021/03/12 05:49:23;;;;;;;5.70;2.58;;;;;;;6.26;71.62;98993.56;2242669;79;31525;-64
2021/03/12 05:52:25;;;;;;;4.25;2.25;;;;;;;6.27;71.60;99000.60;2243110;79;33544;-65
2021/03/12 05:55:29;;;;;;;6.28;2.50;;;;;;;6.31;71.69;98999.96;2220525;79;29999;-64
2021/03/12 05:58:31;;;;;;;3.75;2.50;;;;;;;6.37;71.82;99005.81;2203558;80;27694;-64
2021/03/12 06:01:33;;;;;;;3.20;2.52;;;;;;;6.42;71.83;99004.26;2229356;79;28828;-65
2021/03/12 06:04:36;;;;;;;5.17;2.85;;;;;;;6.43;71.78;99019.73;2243094;79;31682;-64
2021/03/12 06:07:38;;;;;;;11.33;3.90;;;;;;;6.38;71.69;99022.64;2209803;79;33145;-65
2021/03/12 06:10:41;;;;;;;4.92;2.67;;;;;;;6.42;71.84;99020.67;2243095;79;28868;-65
2021/03/12 06:13:53;;;;;;;5.53;3.02;;;;;;;6.44;71.78;99038.75;2209710;79;27689;-64
2021/03/12 06:16:55;;;;;;;7.05;3.60;;;;;;;6.43;71.73;99038.36;2224523;79;30047;-64
2021/03/12 06:19:57;;;;;;;7.42;3.30;;;;;;;6.43;71.75;99054.31;2202813;80;30985;-66
2021/03/12 06:22:59;;;;;;;6.92;3.90;;;;;;;6.42;71.85;99049.94;2203316;80;33107;-65
2021/03/12 06:26:02;;;;;;;6.67;3.37;;;;;;;6.45;71.92;99063.95;2203522;80;28926;-64
2021/03/12 06:29:09;;;;;;;6.60;3.65;;;;;;;6.45;71.98;99066.62;2203620;80;27690;-64
2021/03/12 06:32:11;;;;;;;7.22;3.67;;;;;;;6.39;71.89;99083.73;2232608;79;28937;-65
2021/03/12 06:35:19;;;;;;;6.97;3.42;;;;;;;6.36;71.92;99088.36;2241735;79;32527;-65
2021/03/12 06:38:21;;;;;;;8.23;3.22;;;;;;;6.32;71.91;99103.63;2229149;79;33358;-65
2021/03/12 06:41:39;;;;;;;7.90;3.75;;;;;;;6.30;72.10;99110.83;2232565;79;28851;-65
2021/03/12 06:44:41;;;;;;;5.80;3.70;;;;;;;6.30;72.17;99123.25;2232663;79;27568;-64
2021/03/12 06:47:43;;;;;;;5.58;3.70;;;;;;;6.30;72.15;99134.77;2240309;79;28819;-63
2021/03/12 06:50:51;;;;;;;8.98;3.47;;;;;;;6.28;72.30;99140.63;2235946;79;31574;-64
2021/03/12 06:53:59;;;;;;;5.45;3.22;;;;;;;6.28;72.34;99138.45;2242994;79;33981;-63
2021/03/12 06:57:20;;;;;;;6.72;3.55;;;;;;;6.27;72.40;99138.91;2238298;79;28870;-64
2021/03/12 07:00:32;;;;;;;6.22;4.05;;;;;;;6.25;72.31;99158.55;2224673;79;27874;-64
2021/03/12 07:03:34;;;;;;;7.75;3.95;;;;;;;6.20;72.32;99165.43;2237497;79;29124;-63
2021/03/12 07:06:45;;;;;;;6.45;3.30;;;;;;;6.17;72.48;99177.06;2203686;80;31161;-62
2021/03/12 07:09:57;;;;;;;4.65;3.00;;;;;;;6.10;72.42;99175.66;2203766;80;33109;-64
2021/03/12 07:13:12;;;;;;;3.83;2.92;;;;;;;6.02;72.44;99198.64;2075250;84;29958;-64
2021/03/12 07:16:14;;;;;;;3.00;2.55;;;;;;;5.96;72.46;99198.05;2089270;84;28202;-63
2021/03/12 07:19:19;;;;;;;6.03;2.98;;;;;;;5.94;72.65;99206.08;2109050;84;28936;-63
2021/03/12 07:22:33;;;;;;;8.33;4.07;;;;;;;5.97;72.79;99218.34;2307606;76;27689;-64
2021/03/12 07:25:35;;;;;;;5.83;2.52;;;;;;;5.91;72.87;99214.19;2288192;77;28097;-65
2021/03/12 07:28:43;;;;;;;3.27;2.90;;;;;;;5.88;72.89;99244.90;2303349;77;29993;-64
2021/03/12 07:31:50;;;;;;;7.25;3.25;;;;;;;5.80;72.98;99241.27;2303532;77;31129;-64
2021/03/12 07:34:52;;;;;;;4.92;3.42;;;;;;;5.77;73.09;99243.62;2303646;77;33080;-64
2021/03/12 07:37:54;;;;;;;4.08;3.12;;;;;;;5.74;73.14;99252.21;2303676;77;28570;-65
2021/03/12 07:40:56;;;;;;;6.03;3.47;;;;;;;5.68;73.24;99262.67;2303722;77;28051;-65
2021/03/12 07:43:59;;;;;;;9.43;3.50;;;;;;;5.65;73.44;99264.58;2271034;75;28743;-64
2021/03/12 07:47:01;;;;;;;6.62;3.27;;;;;;;5.64;73.33;99274.36;2277077;77;29905;-64
2021/03/12 07:50:24;;;;;;;4.92;2.83;;;;;;;5.65;73.42;99270.77;2261769;78;33101;-64
2021/03/12 07:53:46;;;;;;;4.35;3.12;;;;;;;5.67;73.55;99270.24;2292184;77;29953;-64
2021/03/12 07:56:53;;;;;;;8.93;3.45;;;;;;;5.70;73.60;99282.51;2301598;77;27685;-66
2021/03/12 07:59:58;;;;;;;5.62;3.25;;;;;;;5.76;73.57;99275.12;2302474;77;29710;-65
2021/03/12 08:03:01;;;;;;;2.55;1.90;;;;;;;5.85;73.77;99285.78;2303316;77;33506;-64
2021/03/12 08:09:35;;;;;;;8.17;2.70;;;;;;;6.04;73.40;99298.25;2252021;77;29484;-65
2021/03/12 08:12:41;;;;;;;2.85;2.62;;;;;;;6.07;73.51;99313.58;2217835;80;27686;-66
2021/03/12 08:15:43;;;;;;;6.00;2.70;;;;;;;6.15;73.52;99318.53;2183336;80;28765;-65
2021/03/12 08:18:47;;;;;;;3.05;2.62;;;;;;;6.25;73.42;99315.46;2170188;80;31214;-65
2021/03/12 08:21:49;;;;;;;6.12;3.08;;;;;;;6.34;73.36;99315.88;2216347;80;33159;-65
2021/03/12 08:24:52;;;;;;;5.72;3.05;;;;;;;6.46;73.28;99317.06;2216777;80;29826;-65
2021/03/12 08:27:54;;;;;;;5.25;3.00;;;;;;;6.63;73.36;99317.59;2217521;80;27714;-64
2021/03/12 08:30:59;;;;;;;5.42;2.92;;;;;;;6.81;73.34;99304.30;2200792;80;29753;-64
2021/03/12 08:34:24;;;;;;;4.95;2.52;;;;;;;6.95;73.06;99316.92;2178714;81;31133;-65
2021/03/12 08:37:31;;;;;;;4.37;2.87;;;;;;;7.08;72.61;99325.13;2210793;80;33226;-64
2021/03/12 08:40:35;;;;;;;7.78;4.20;;;;;;;7.09;72.54;99337.05;2203681;80;28179;-69
2021/03/12 08:43:45;;;;;;;5.90;3.30;;;;;;;7.11;72.51;99348.50;2178943;81;27624;-70
2021/03/12 08:46:49;;;;;;;6.28;3.37;;;;;;;7.19;72.45;99359.21;2206311;80;28896;-66
2021/03/12 08:49:51;;;;;;;6.03;3.50;;;;;;;7.28;72.49;99362.75;2217526;80;31173;-67
2021/03/12 08:52:53;;;;;;;4.85;3.42;;;;;;;7.33;72.26;99361.18;2217332;80;33179;-69
2021/03/12 08:55:57;;;;;;;6.12;3.95;;;;;;;7.39;72.09;99363.51;2217447;80;30128;-68
2021/03/12 08:59:01;;;;;;;7.78;3.62;;;;;;;7.51;72.33;99370.02;2217386;80;27568;-67
2021/03/12 09:02:03;;;;;;;5.08;3.58;;;;;;;7.57;72.15;99375.88;2216002;80;29805;-67
2021/03/12 09:05:26;;;;;;;8.13;3.90;;;;;;;7.66;72.11;99387.02;2198008;80;32134;-67
2021/03/12 09:08:29;;;;;;;5.47;3.85;;;;;;;7.77;72.15;99381.97;2185894;80;34063;-67
2021/03/12 09:11:31;;;;;;;8.83;6.42;;;;;;;8.04;72.22;99388.98;2203697;80;29697;-67
2021/03/12 09:14:40;;;;;;;6.03;3.50;;;;;;;8.28;72.06;99385.89;2191773;80;27689;-70
2021/03/12 09:17:43;;;;;;;8.43;4.92;;;;;;;8.54;71.77;99388.09;2191980;80;28821;-70
2021/03/12 09:20:55;;;;;;;7.22;5.58;;;;;;;8.83;71.66;99381.11;2186964;80;32220;-67
2021/03/12 09:24:00;;;;;;;5.28;4.28;;;;;;;9.19;71.37;99387.95;2185052;81;33099;-67
2021/03/12 09:27:03;;;;;;;4.85;3.75;;;;;;;9.32;70.18;99385.42;2205717;80;28925;-67
2021/03/12 09:30:07;;;;;;;5.22;3.67;;;;;;;9.34;69.58;99392.88;2195956;78;27606;-70
2021/03/12 09:33:12;;;;;;;7.00;3.70;;;;;;;9.34;69.07;99396.89;2161948;80;28893;-69
2021/03/12 09:36:39;;;;;;;7.03;3.77;;;;;;;9.34;69.27;99398.22;2202817;80;32292;-69
2021/03/12 09:39:42;;;;;;;6.87;3.92;;;;;;;9.43;68.94;99405.69;2184961;80;34311;-68
2021/03/12 09:42:44;;;;;;;4.90;4.40;;;;;;;9.48;68.74;99405.41;2203723;80;28930;-69
2021/03/12 09:45:49;;;;;;;5.22;4.25;;;;;;;9.51;67.68;99411.06;2201864;80;27674;-70
2021/03/12 09:48:52;;;;;;;10.45;5.90;;;;;;;9.51;67.95;99419.08;2203775;78;28825;-67
2021/03/12 09:52:00;;;;;;;9.15;5.30;;;;;;;9.45;67.27;99423.45;2190419;78;31143;-63
2021/03/12 09:55:04;;;;;;;9.38;5.35;;;;;;;9.37;67.28;99431.92;2223116;80;32271;-66
2021/03/12 09:58:10;;;;;;;8.95;6.10;;;;;;;9.26;66.99;99438.77;2223993;80;28859;-64
2021/03/12 10:01:14;;;;;;;8.50;4.72;;;;;;;9.22;67.02;99445.69;2218126;80;27930;-66
2021/03/12 10:04:40;;;;;;;9.70;5.10;;;;;;;9.18;66.42;99430.81;2223605;80;28856;-64
2021/03/12 10:07:46;;;;;;;7.15;4.08;;;;;;;9.27;66.58;99436.45;2221067;80;32014;-64
2021/03/12 10:10:55;;;;;;;8.23;5.97;;;;;;;9.43;66.24;99440.44;2046968;86;33149;-65
2021/03/12 10:13:58;;;;;;;7.70;4.65;;;;;;;9.64;66.82;99445.47;2099328;81;29814;-65
2021/03/12 10:17:26;;;;;;;13.80;7.25;;;;;;;9.87;66.01;99434.72;2155988;81;27773;-65
2021/03/12 10:20:34;;;;;;;18.02;8.28;;;;;;;10.07;66.32;99429.97;2103840;81;28868;-66
2021/03/12 10:23:50;;;;;;;12.88;5.97;;;;;;;10.38;66.08;99429.85;2247948;78;32791;-66
2021/03/12 10:26:53;;;;;;;19.00;8.05;;;;;;;10.50;62.70;99422.44;2228762;79;28101;-66
2021/03/12 10:29:56;;;;;;;5.90;5.00;;;;;;;10.62;65.10;99429.69;2197480;79;29761;-66
2021/03/12 10:33:02;;;;;;;9.28;3.42;;;;;;;10.84;64.35;99427.43;2226612;79;32160;-65
2021/03/12 10:36:06;;;;;;;7.75;4.22;;;;;;;10.99;63.91;99434.47;2227950;79;33137;-65
2021/03/12 10:39:09;;;;;;;6.30;4.05;;;;;;;11.13;62.82;99434.03;2228658;79;28547;-66
2021/03/12 10:42:11;;;;;;;6.85;4.28;;;;;;;11.25;62.78;99431.41;2269885;78;27740;-65
2021/03/12 10:45:24;;;;;;;17.12;8.30;;;;;;;11.31;62.57;99438.17;2276831;78;28892;-66
2021/03/12 10:48:29;;;;;;;25.80;16.80;;;;;;;11.33;60.75;99444.80;2263211;78;32019;-66
2021/03/12 10:51:41;;;;;;;34.45;12.65;;;;;;;11.31;60.83;99444.88;2228444;79;35459;-66
2021/03/12 10:54:43;;;;;;;28.62;10.25;;;;;;;11.34;60.32;99437.98;2228382;79;28865;-66
2021/03/12 10:57:47;;;;;;;52.25;17.27;;;;;;;11.34;60.29;99432.62;2228623;79;27625;-66
2021/03/12 11:01:29;;;;;;;61.53;18.40;;;;;;;11.29;58.92;99430.72;2223405;79;28845;-66
2021/03/12 11:04:31;;;;;;;45.43;15.30;;;;;;;11.23;59.28;99437.35;2222397;80;31144;-67
2021/03/12 11:07:33;;;;;;;62.62;21.02;;;;;;;11.24;59.22;99432.37;2222883;80;33591;-66
2021/03/12 11:10:35;;;;;;;65.40;20.48;;;;;;;11.23;59.17;99429.80;2222962;80;28846;-65
2021/03/12 11:13:39;;;;;;;14.47;5.65;;;;;;;11.22;58.87;99428.08;2223834;79;27624;-65
2021/03/12 11:16:41;;;;;;;10.43;4.73;;;;;;;11.23;57.86;99417.73;2228858;79;28823;-66
2021/03/12 11:19:44;;;;;;;34.13;11.55;;;;;;;11.20;57.03;99417.44;2228491;79;31142;-66
2021/03/12 11:22:47;;;;;;;24.02;8.08;;;;;;;11.20;58.29;99422.80;2222332;79;33901;-67
2021/03/12 11:25:50;;;;;;;35.88;11.68;;;;;;;11.24;58.08;99426.16;2217717;80;28863;-68
2021/03/12 11:28:52;;;;;;;10.03;4.70;;;;;;;11.30;57.75;99434.27;2217834;80;27715;-67
2021/03/12 11:31:54;;;;;;;16.25;6.35;;;;;;;11.30;56.27;99420.38;2217728;80;28826;-67
2021/03/12 11:34:56;;;;;;;15.70;6.20;;;;;;;11.31;56.34;99430.13;2216828;80;31143;-68
2021/03/12 11:37:59;;;;;;;13.62;6.33;;;;;;;11.34;56.42;99421.89;2216628;80;33125;-66
2021/03/12 11:41:01;;;;;;;7.03;3.12;;;;;;;11.28;56.70;99422.29;2216003;80;28994;-66
2021/03/12 11:44:03;;;;;;;7.35;3.22;;;;;;;11.27;55.36;99425.09;2216945;80;27692;-67
2021/03/12 11:47:06;;;;;;;8.45;4.17;;;;;;;11.22;56.21;99422.22;2186013;80;29734;-67
2021/03/12 11:50:13;;;;;;;5.33;2.50;;;;;;;11.20;54.94;99424.14;2217074;80;31262;-65
2021/03/12 11:53:19;;;;;;;7.03;3.10;;;;;;;11.10;53.93;99431.09;2217138;80;33124;-66
2021/03/12 11:56:22;;;;;;;4.60;2.85;;;;;;;10.94;54.94;99429.42;2217033;80;28862;-66
2021/03/12 12:02:40;;;;;;;3.80;2.60;;;;;;;10.87;55.05;99432.10;2248436;78;32292;-65
2021/03/12 12:05:45;;;;;;;5.53;2.37;;;;;;;10.89;54.92;99427.50;2221938;79;27784;-65
2021/03/12 12:08:48;;;;;;;4.35;2.40;;;;;;;10.94;53.94;99433.44;2219621;79;29701;-66
2021/03/12 12:11:50;;;;;;;6.30;2.40;;;;;;;11.02;53.96;99422.67;2179479;81;31553;-66
2021/03/12 12:14:52;;;;;;;12.55;5.28;;;;;;;11.04;53.49;99421.64;2179318;81;33102;-66
2021/03/12 12:17:59;;;;;;;14.40;5.55;;;;;;;11.07;53.20;99423.24;2179367;81;28550;-67
2021/03/12 12:20:59;;;;;;;9.53;3.92;;;;;;;11.15;53.58;99429.44;2179710;81;27732;-66
2021/03/12 12:24:01;;;;;;;7.50;3.20;;;;;;;11.17;54.17;99426.17;2179547;81;28813;-65
2021/03/12 12:27:05;;;;;;;4.87;2.27;;;;;;;11.12;53.82;99416.23;2179475;81;32060;-66
2021/03/12 12:30:08;;;;;;;3.92;1.60;;;;;;;11.01;52.17;99426.31;2202161;80;33991;-65
2021/03/12 12:33:11;;;;;;;8.28;2.62;;;;;;;10.90;53.10;99422.53;2213111;80;28856;-66
2021/03/12 12:36:14;;;;;;;6.25;2.80;;;;;;;10.84;53.02;99423.41;2199267;80;27630;-64
2021/03/12 12:39:17;;;;;;;12.05;5.05;;;;;;;10.77;52.46;99434.52;2199248;80;28826;-66
2021/03/12 12:42:19;;;;;;;23.90;12.90;;;;;;;10.72;53.54;99433.97;2199109;80;31146;-65
2021/03/12 12:45:22;;;;;;;14.05;6.78;;;;;;;10.71;53.14;99434.05;2146082;82;33112;-64
2021/03/12 12:48:24;;;;;;;20.52;8.95;;;;;;;10.62;53.28;99436.84;2192811;80;28848;-66
2021/03/12 12:51:26;;;;;;;9.55;5.12;;;;;;;10.56;52.88;99435.91;2176858;81;28077;-66
2021/03/12 12:54:29;;;;;;;7.42;3.87;;;;;;;10.52;53.18;99425.00;2176698;81;28810;-65
2021/03/12 12:57:32;;;;;;;17.57;8.85;;;;;;;10.52;52.54;99422.33;2176700;81;31566;-65
2021/03/12 13:00:34;;;;;;;8.50;5.17;;;;;;;10.53;53.29;99415.52;2193032;80;33177;-65
2021/03/12 13:03:36;;;;;;;22.90;10.20;;;;;;;10.50;53.53;99422.44;2205227;80;29755;-65
2021/03/12 13:06:38;;;;;;;8.83;4.92;;;;;;;10.48;53.24;99416.31;2205611;80;27711;-65
2021/03/12 13:09:41;;;;;;;5.08;2.75;;;;;;;10.52;52.54;99415.14;2205833;80;28824;-66
2021/03/12 13:12:43;;;;;;;6.35;2.75;;;;;;;10.57;52.21;99400.98;2210931;80;31149;-65
2021/03/12 13:15:45;;;;;;;5.15;2.20;;;;;;;10.72;51.81;99414.34;2220780;80;34376;-66
2021/03/12 13:18:47;;;;;;;5.78;2.40;;;;;;;10.84;51.39;99412.69;2212174;80;28838;-63
2021/03/12 13:21:51;;;;;;;5.97;3.90;;;;;;;10.90;50.97;99406.45;2181813;80;27696;-63
2021/03/12 13:24:53;;;;;;;5.47;2.52;;;;;;;11.00;51.63;99409.39;2180920;80;30004;-63
2021/03/12 13:27:55;;;;;;;6.10;2.87;;;;;;;11.11;51.68;99412.70;2163751;81;31781;-70
2021/03/12 13:30:57;;;;;;;2.83;2.15;;;;;;;11.20;51.09;99413.91;2214558;80;33980;-67
2021/03/12 13:34:02;;;;;;;3.98;2.27;;;;;;;11.19;50.54;99413.53;2184981;80;30111;-69
2021/03/12 13:37:03;;;;;;;4.25;1.90;;;;;;;11.17;51.73;99414.95;2199346;80;27706;-63
2021/03/12 13:40:11;;;;;;;5.58;2.20;;;;;;;11.15;51.80;99436.14;2223915;80;28819;-64
2021/03/12 13:43:14;;;;;;;4.75;2.10;;;;;;;11.08;52.68;99423.16;2223182;80;32032;-66
2021/03/12 13:46:16;;;;;;;4.05;2.62;;;;;;;10.90;52.78;99425.20;2205014;80;33095;-64
2021/03/12 13:49:18;;;;;;;8.23;3.70;;;;;;;10.74;53.24;99427.16;2216906;80;28859;-65
2021/03/12 13:52:20;;;;;;;8.08;2.90;;;;;;;10.62;52.70;99425.66;2188802;80;27687;-64
2021/03/12 13:55:23;;;;;;;11.18;4.72;;;;;;;10.47;52.37;99422.63;2191027;80;28890;-66
2021/03/12 13:58:25;;;;;;;26.40;11.97;;;;;;;10.36;52.74;99419.25;2202446;80;32561;-63
2021/03/12 14:01:28;;;;;;;90.42;30.97;;;;;;;10.29;52.92;99416.56;2173299;81;33130;-62
2021/03/12 14:04:32;;;;;;;9.18;5.55;;;;;;;10.23;53.02;99415.63;2162135;81;28835;-65
2021/03/12 14:07:34;;;;;;;21.05;8.15;;;;;;;10.15;51.92;99418.79;2111700;84;27758;-66
2021/03/12 14:10:36;;;;;;;5.28;2.37;;;;;;;10.11;52.35;99415.91;2095824;84;28830;-66
2021/03/12 14:13:38;;;;;;;5.30;3.15;;;;;;;10.09;51.90;99428.52;2160356;81;31138;-69
2021/03/12 14:16:41;;;;;;;3.22;2.33;;;;;;;10.06;51.45;99430.92;2145205;81;33118;-63
2021/03/12 14:19:43;;;;;;;9.58;3.17;;;;;;;10.06;51.13;99432.27;2151805;81;29340;-63
2021/03/12 14:22:46;;;;;;;8.83;2.87;;;;;;;10.07;51.17;99438.45;2180430;81;27719;-63
2021/03/12 14:25:48;;;;;;;6.10;3.30;;;;;;;10.11;51.15;99426.62;2157136;81;28891;-63
2021/03/12 14:28:51;;;;;;;7.28;3.77;;;;;;;10.13;51.32;99450.98;2171876;81;31101;-63
2021/03/12 14:31:53;;;;;;;5.35;2.92;;;;;;;10.13;50.96;99444.29;2151557;81;33352;-63
2021/03/12 14:34:55;;;;;;;6.17;3.47;;;;;;;10.16;51.26;99442.77;2170188;81;29891;-63